sensor_id;sensor_type;location;lat;lon;timestamp;P1;durP1;ratioP1;P2;durP2;ratioP2
11893;SDS011;6006;49.696;8.662;2023-01-29T00:01:51;4.87;;;4.37;;
11893;SDS011;6006;49.696;8.662;2023-01-29T00:04:20;6.80;;;4.13;;
11893;SDS011;6006;49.696;8.662;2023-01-29T00:06:48;3.97;;;3.53;;
11893;SDS011;6006;49.696;8.662;2023-01-29T00:09:15;4.73;;;3.63;;
11893;SDS011;6006;49.696;8.662;2023-01-29T00:11:41;4.57;;;3.73;;
11893;SDS011;6006;49.696;8.662;2023-01-29T00:14:08;4.13;;;3.73;;
11893;SDS011;6006;49.696;8.662;2023-01-29T00:16:35;6.77;;;4.57;;
11893;SDS011;6006;49.696;8.662;2023-01-29T00:19:04;5.83;;;4.67;;
11893;SDS011;6006;49.696;8.662;2023-01-29T00:21:31;5.33;;;4.40;;
11893;SDS011;6006;49.696;8.662;2023-01-29T00:23:58;5.97;;;4.70;;
11893;SDS011;6006;49.696;8.662;2023-01-29T00:26:25;5.87;;;4.57;;
11893;SDS011;6006;49.696;8.662;2023-01-29T00:28:53;8.80;;;5.20;;
11893;SDS011;6006;49.696;8.662;2023-01-29T00:31:22;5.50;;;4.77;;
11893;SDS011;6006;49.696;8.662;2023-01-29T00:33:50;7.13;;;4.17;;
11893;SDS011;6006;49.696;8.662;2023-01-29T00:36:19;5.43;;;3.97;;
11893;SDS011;6006;49.696;8.662;2023-01-29T00:38:47;5.43;;;4.67;;
11893;SDS011;6006;49.696;8.662;2023-01-29T00:41:22;7.07;;;5.00;;
11893;SDS011;6006;49.696;8.662;2023-01-29T00:44:09;6.83;;;4.43;;
11893;SDS011;6006;49.696;8.662;2023-01-29T00:46:53;5.87;;;4.30;;
11893;SDS011;6006;49.696;8.662;2023-01-29T00:49:20;6.37;;;5.20;;
11893;SDS011;6006;49.696;8.662;2023-01-29T00:51:48;6.40;;;4.60;;
11893;SDS011;6006;49.696;8.662;2023-01-29T00:54:29;5.90;;;4.47;;
11893;SDS011;6006;49.696;8.662;2023-01-29T00:56:56;7.07;;;4.63;;
11893;SDS011;6006;49.696;8.662;2023-01-29T00:59:23;7.17;;;5.27;;
11893;SDS011;6006;49.696;8.662;2023-01-29T01:01:49;5.30;;;4.13;;
11893;SDS011;6006;49.696;8.662;2023-01-29T01:04:34;3.87;;;3.47;;
11893;SDS011;6006;49.696;8.662;2023-01-29T01:07:02;4.13;;;3.70;;
11893;SDS011;6006;49.696;8.662;2023-01-29T01:09:29;5.20;;;3.97;;
11893;SDS011;6006;49.696;8.662;2023-01-29T01:12:13;4.97;;;4.03;;
11893;SDS011;6006;49.696;8.662;2023-01-29T01:14:40;5.03;;;4.37;;
11893;SDS011;6006;49.696;8.662;2023-01-29T01:17:07;4.53;;;3.77;;
11893;SDS011;6006;49.696;8.662;2023-01-29T01:19:34;4.00;;;3.60;;
11893;SDS011;6006;49.696;8.662;2023-01-29T01:22:02;7.33;;;4.00;;
11893;SDS011;6006;49.696;8.662;2023-01-29T01:24:30;5.57;;;4.40;;
11893;SDS011;6006;49.696;8.662;2023-01-29T01:26:57;4.17;;;3.50;;
11893;SDS011;6006;49.696;8.662;2023-01-29T01:29:24;5.13;;;3.97;;
11893;SDS011;6006;49.696;8.662;2023-01-29T01:31:51;4.97;;;3.97;;
11893;SDS011;6006;49.696;8.662;2023-01-29T01:34:19;4.37;;;3.97;;
11893;SDS011;6006;49.696;8.662;2023-01-29T01:36:46;4.10;;;3.70;;
11893;SDS011;6006;49.696;8.662;2023-01-29T01:39:14;5.00;;;3.87;;
11893;SDS011;6006;49.696;8.662;2023-01-29T01:41:41;4.90;;;4.00;;
11893;SDS011;6006;49.696;8.662;2023-01-29T01:47:08;5.47;;;4.13;;
11893;SDS011;6006;49.696;8.662;2023-01-29T01:49:35;5.57;;;4.27;;
11893;SDS011;6006;49.696;8.662;2023-01-29T01:52:02;4.73;;;3.90;;
11893;SDS011;6006;49.696;8.662;2023-01-29T01:54:31;4.37;;;3.83;;
11893;SDS011;6006;49.696;8.662;2023-01-29T01:57:00;4.80;;;3.90;;
11893;SDS011;6006;49.696;8.662;2023-01-29T01:59:33;4.87;;;4.37;;
11893;SDS011;6006;49.696;8.662;2023-01-29T02:02:02;4.87;;;3.93;;
11893;SDS011;6006;49.696;8.662;2023-01-29T02:04:49;5.00;;;4.40;;
11893;SDS011;6006;49.696;8.662;2023-01-29T02:07:34;4.40;;;3.77;;
11893;SDS011;6006;49.696;8.662;2023-01-29T02:10:24;6.87;;;4.37;;
11893;SDS011;6006;49.696;8.662;2023-01-29T02:12:53;4.43;;;4.03;;
11893;SDS011;6006;49.696;8.662;2023-01-29T02:15:20;5.37;;;4.10;;
11893;SDS011;6006;49.696;8.662;2023-01-29T02:17:46;5.13;;;4.07;;
11893;SDS011;6006;49.696;8.662;2023-01-29T02:20:16;4.83;;;3.83;;
11893;SDS011;6006;49.696;8.662;2023-01-29T02:22:50;5.97;;;4.50;;
11893;SDS011;6006;49.696;8.662;2023-01-29T02:25:44;5.80;;;4.57;;
11893;SDS011;6006;49.696;8.662;2023-01-29T02:28:19;4.70;;;3.97;;
11893;SDS011;6006;49.696;8.662;2023-01-29T02:30:57;5.97;;;4.43;;
11893;SDS011;6006;49.696;8.662;2023-01-29T02:33:32;4.73;;;3.53;;
11893;SDS011;6006;49.696;8.662;2023-01-29T02:36:09;6.00;;;3.70;;
11893;SDS011;6006;49.696;8.662;2023-01-29T02:38:46;5.23;;;4.07;;
11893;SDS011;6006;49.696;8.662;2023-01-29T02:41:22;5.03;;;4.30;;
11893;SDS011;6006;49.696;8.662;2023-01-29T02:43:56;5.67;;;4.20;;
11893;SDS011;6006;49.696;8.662;2023-01-29T02:46:29;4.27;;;3.83;;
11893;SDS011;6006;49.696;8.662;2023-01-29T02:49:01;4.97;;;3.90;;
11893;SDS011;6006;49.696;8.662;2023-01-29T02:51:36;4.73;;;4.23;;
11893;SDS011;6006;49.696;8.662;2023-01-29T02:54:12;4.97;;;4.47;;
11893;SDS011;6006;49.696;8.662;2023-01-29T02:56:43;5.17;;;4.67;;
11893;SDS011;6006;49.696;8.662;2023-01-29T02:59:19;7.53;;;4.50;;
11893;SDS011;6006;49.696;8.662;2023-01-29T03:01:49;6.93;;;4.50;;
11893;SDS011;6006;49.696;8.662;2023-01-29T03:04:21;6.17;;;4.17;;
11893;SDS011;6006;49.696;8.662;2023-01-29T03:06:53;4.83;;;4.33;;
11893;SDS011;6006;49.696;8.662;2023-01-29T03:09:24;6.07;;;4.50;;
11893;SDS011;6006;49.696;8.662;2023-01-29T03:11:56;5.57;;;4.07;;
11893;SDS011;6006;49.696;8.662;2023-01-29T03:14:44;5.10;;;4.10;;
11893;SDS011;6006;49.696;8.662;2023-01-29T03:17:32;4.53;;;3.93;;
11893;SDS011;6006;49.696;8.662;2023-01-29T03:20:03;4.87;;;4.23;;
11893;SDS011;6006;49.696;8.662;2023-01-29T03:22:36;5.97;;;3.97;;
11893;SDS011;6006;49.696;8.662;2023-01-29T03:25:04;4.07;;;3.63;;
11893;SDS011;6006;49.696;8.662;2023-01-29T03:27:52;6.53;;;4.50;;
11893;SDS011;6006;49.696;8.662;2023-01-29T03:30:44;4.93;;;3.50;;
11893;SDS011;6006;49.696;8.662;2023-01-29T03:33:34;5.60;;;4.50;;
11893;SDS011;6006;49.696;8.662;2023-01-29T03:36:08;6.57;;;4.80;;
11893;SDS011;6006;49.696;8.662;2023-01-29T03:38:40;6.93;;;4.80;;
11893;SDS011;6006;49.696;8.662;2023-01-29T03:41:07;5.93;;;4.60;;
11893;SDS011;6006;49.696;8.662;2023-01-29T03:43:42;6.53;;;4.50;;
11893;SDS011;6006;49.696;8.662;2023-01-29T03:46:18;5.87;;;4.50;;
11893;SDS011;6006;49.696;8.662;2023-01-29T03:48:49;5.90;;;4.40;;
11893;SDS011;6006;49.696;8.662;2023-01-29T03:51:24;5.40;;;4.07;;
11893;SDS011;6006;49.696;8.662;2023-01-29T03:53:57;5.57;;;4.63;;
11893;SDS011;6006;49.696;8.662;2023-01-29T03:56:33;4.90;;;4.30;;
11893;SDS011;6006;49.696;8.662;2023-01-29T03:59:12;5.57;;;4.40;;
11893;SDS011;6006;49.696;8.662;2023-01-29T04:01:47;4.80;;;3.80;;
11893;SDS011;6006;49.696;8.662;2023-01-29T04:04:18;5.37;;;4.27;;
11893;SDS011;6006;49.696;8.662;2023-01-29T04:06:49;5.37;;;4.50;;
11893;SDS011;6006;49.696;8.662;2023-01-29T04:09:18;6.00;;;4.53;;
11893;SDS011;6006;49.696;8.662;2023-01-29T04:11:50;4.97;;;4.20;;
11893;SDS011;6006;49.696;8.662;2023-01-29T04:14:22;4.60;;;4.10;;
11893;SDS011;6006;49.696;8.662;2023-01-29T04:16:51;4.90;;;4.07;;
11893;SDS011;6006;49.696;8.662;2023-01-29T04:19:22;4.73;;;3.80;;
11893;SDS011;6006;49.696;8.662;2023-01-29T04:21:50;5.83;;;4.50;;
11893;SDS011;6006;49.696;8.662;2023-01-29T04:24:23;5.50;;;3.93;;
11893;SDS011;6006;49.696;8.662;2023-01-29T04:26:54;4.20;;;3.80;;
11893;SDS011;6006;49.696;8.662;2023-01-29T04:29:35;4.70;;;3.87;;
11893;SDS011;6006;49.696;8.662;2023-01-29T04:32:13;5.50;;;3.97;;
11893;SDS011;6006;49.696;8.662;2023-01-29T04:34:47;6.27;;;3.93;;
11893;SDS011;6006;49.696;8.662;2023-01-29T04:37:21;4.33;;;3.80;;
11893;SDS011;6006;49.696;8.662;2023-01-29T04:39:55;4.83;;;3.80;;
11893;SDS011;6006;49.696;8.662;2023-01-29T04:42:30;5.13;;;4.43;;
11893;SDS011;6006;49.696;8.662;2023-01-29T04:45:03;5.67;;;4.40;;
11893;SDS011;6006;49.696;8.662;2023-01-29T04:47:45;6.13;;;4.80;;
11893;SDS011;6006;49.696;8.662;2023-01-29T04:50:17;7.20;;;4.77;;
11893;SDS011;6006;49.696;8.662;2023-01-29T04:52:52;5.43;;;4.63;;
11893;SDS011;6006;49.696;8.662;2023-01-29T04:55:27;7.17;;;4.93;;
11893;SDS011;6006;49.696;8.662;2023-01-29T04:58:01;4.80;;;4.27;;
11893;SDS011;6006;49.696;8.662;2023-01-29T05:00:34;5.73;;;4.23;;
11893;SDS011;6006;49.696;8.662;2023-01-29T05:03:06;5.80;;;4.40;;
11893;SDS011;6006;49.696;8.662;2023-01-29T05:05:35;5.53;;;4.47;;
11893;SDS011;6006;49.696;8.662;2023-01-29T05:08:04;6.37;;;4.40;;
11893;SDS011;6006;49.696;8.662;2023-01-29T05:10:32;4.37;;;3.87;;
11893;SDS011;6006;49.696;8.662;2023-01-29T05:13:00;5.87;;;4.27;;
11893;SDS011;6006;49.696;8.662;2023-01-29T05:15:32;5.57;;;4.33;;
11893;SDS011;6006;49.696;8.662;2023-01-29T05:18:02;7.03;;;4.47;;
11893;SDS011;6006;49.696;8.662;2023-01-29T05:20:34;4.77;;;4.17;;
11893;SDS011;6006;49.696;8.662;2023-01-29T05:23:04;5.80;;;4.37;;
11893;SDS011;6006;49.696;8.662;2023-01-29T05:25:34;6.07;;;4.27;;
11893;SDS011;6006;49.696;8.662;2023-01-29T05:28:02;5.20;;;4.07;;
11893;SDS011;6006;49.696;8.662;2023-01-29T05:30:32;4.47;;;4.03;;
11893;SDS011;6006;49.696;8.662;2023-01-29T05:33:00;6.27;;;4.60;;
11893;SDS011;6006;49.696;8.662;2023-01-29T05:35:27;5.87;;;4.40;;
11893;SDS011;6006;49.696;8.662;2023-01-29T05:37:56;6.03;;;4.40;;
11893;SDS011;6006;49.696;8.662;2023-01-29T05:40:23;5.47;;;4.40;;
11893;SDS011;6006;49.696;8.662;2023-01-29T05:42:50;4.80;;;3.77;;
11893;SDS011;6006;49.696;8.662;2023-01-29T05:45:17;5.33;;;4.83;;
11893;SDS011;6006;49.696;8.662;2023-01-29T05:47:45;5.90;;;4.07;;
11893;SDS011;6006;49.696;8.662;2023-01-29T05:50:12;7.43;;;4.87;;
11893;SDS011;6006;49.696;8.662;2023-01-29T05:52:40;8.50;;;4.10;;
11893;SDS011;6006;49.696;8.662;2023-01-29T05:55:09;5.10;;;4.07;;
11893;SDS011;6006;49.696;8.662;2023-01-29T05:57:36;6.73;;;4.77;;
11893;SDS011;6006;49.696;8.662;2023-01-29T06:00:05;6.57;;;4.67;;
11893;SDS011;6006;49.696;8.662;2023-01-29T06:02:33;6.33;;;4.37;;
11893;SDS011;6006;49.696;8.662;2023-01-29T06:05:00;4.70;;;3.90;;
11893;SDS011;6006;49.696;8.662;2023-01-29T06:07:27;4.60;;;3.90;;
11893;SDS011;6006;49.696;8.662;2023-01-29T06:09:54;5.23;;;4.30;;
11893;SDS011;6006;49.696;8.662;2023-01-29T06:12:22;5.87;;;4.17;;
11893;SDS011;6006;49.696;8.662;2023-01-29T06:14:49;5.70;;;4.47;;
11893;SDS011;6006;49.696;8.662;2023-01-29T06:17:16;6.23;;;4.63;;
11893;SDS011;6006;49.696;8.662;2023-01-29T06:19:43;5.60;;;4.53;;
11893;SDS011;6006;49.696;8.662;2023-01-29T06:22:09;5.90;;;4.50;;
11893;SDS011;6006;49.696;8.662;2023-01-29T06:24:36;4.47;;;3.47;;
11893;SDS011;6006;49.696;8.662;2023-01-29T06:27:03;5.53;;;4.23;;
11893;SDS011;6006;49.696;8.662;2023-01-29T06:29:31;5.27;;;4.27;;
11893;SDS011;6006;49.696;8.662;2023-01-29T06:31:58;4.83;;;3.93;;
11893;SDS011;6006;49.696;8.662;2023-01-29T06:34:25;6.67;;;4.33;;
11893;SDS011;6006;49.696;8.662;2023-01-29T06:36:52;4.83;;;4.27;;
11893;SDS011;6006;49.696;8.662;2023-01-29T06:39:19;5.67;;;4.30;;
11893;SDS011;6006;49.696;8.662;2023-01-29T06:41:46;4.80;;;4.23;;
11893;SDS011;6006;49.696;8.662;2023-01-29T06:44:12;6.07;;;4.50;;
11893;SDS011;6006;49.696;8.662;2023-01-29T06:46:41;6.60;;;4.23;;
11893;SDS011;6006;49.696;8.662;2023-01-29T06:49:07;7.97;;;4.60;;
11893;SDS011;6006;49.696;8.662;2023-01-29T06:51:34;5.07;;;4.20;;
11893;SDS011;6006;49.696;8.662;2023-01-29T06:54:01;5.83;;;4.37;;
11893;SDS011;6006;49.696;8.662;2023-01-29T06:56:30;5.60;;;4.57;;
11893;SDS011;6006;49.696;8.662;2023-01-29T06:58:57;7.13;;;4.50;;
11893;SDS011;6006;49.696;8.662;2023-01-29T07:01:24;4.93;;;4.20;;
11893;SDS011;6006;49.696;8.662;2023-01-29T07:03:52;7.10;;;4.70;;
11893;SDS011;6006;49.696;8.662;2023-01-29T07:06:19;6.83;;;4.67;;
11893;SDS011;6006;49.696;8.662;2023-01-29T07:08:46;5.57;;;4.53;;
11893;SDS011;6006;49.696;8.662;2023-01-29T07:11:13;6.47;;;4.57;;
11893;SDS011;6006;49.696;8.662;2023-01-29T07:13:40;5.73;;;4.17;;
11893;SDS011;6006;49.696;8.662;2023-01-29T07:16:06;5.80;;;4.33;;
11893;SDS011;6006;49.696;8.662;2023-01-29T07:18:34;7.07;;;4.87;;
11893;SDS011;6006;49.696;8.662;2023-01-29T07:21:04;6.83;;;5.27;;
11893;SDS011;6006;49.696;8.662;2023-01-29T07:23:31;5.80;;;4.70;;
11893;SDS011;6006;49.696;8.662;2023-01-29T07:25:59;5.50;;;4.50;;
11893;SDS011;6006;49.696;8.662;2023-01-29T07:28:28;6.27;;;4.63;;
11893;SDS011;6006;49.696;8.662;2023-01-29T07:30:55;6.73;;;4.77;;
11893;SDS011;6006;49.696;8.662;2023-01-29T07:33:22;5.50;;;4.70;;
11893;SDS011;6006;49.696;8.662;2023-01-29T07:35:49;7.90;;;5.37;;
11893;SDS011;6006;49.696;8.662;2023-01-29T07:38:18;6.13;;;4.90;;
11893;SDS011;6006;49.696;8.662;2023-01-29T07:40:45;6.03;;;4.27;;
11893;SDS011;6006;49.696;8.662;2023-01-29T07:43:12;6.30;;;4.80;;
11893;SDS011;6006;49.696;8.662;2023-01-29T07:45:39;6.80;;;4.83;;
11893;SDS011;6006;49.696;8.662;2023-01-29T07:48:06;6.50;;;4.97;;
11893;SDS011;6006;49.696;8.662;2023-01-29T07:50:36;6.77;;;4.93;;
11893;SDS011;6006;49.696;8.662;2023-01-29T07:53:03;5.63;;;4.50;;
11893;SDS011;6006;49.696;8.662;2023-01-29T07:55:31;5.50;;;4.80;;
11893;SDS011;6006;49.696;8.662;2023-01-29T07:57:59;5.93;;;4.77;;
11893;SDS011;6006;49.696;8.662;2023-01-29T08:00:27;5.87;;;4.47;;
11893;SDS011;6006;49.696;8.662;2023-01-29T08:03:00;6.83;;;5.00;;
11893;SDS011;6006;49.696;8.662;2023-01-29T08:05:27;6.47;;;5.00;;
11893;SDS011;6006;49.696;8.662;2023-01-29T08:07:54;6.50;;;4.60;;
11893;SDS011;6006;49.696;8.662;2023-01-29T08:10:21;6.37;;;4.27;;
11893;SDS011;6006;49.696;8.662;2023-01-29T08:12:53;5.33;;;4.80;;
11893;SDS011;6006;49.696;8.662;2023-01-29T08:15:21;5.43;;;4.40;;
11893;SDS011;6006;49.696;8.662;2023-01-29T08:17:48;6.73;;;4.83;;
11893;SDS011;6006;49.696;8.662;2023-01-29T08:20:15;5.17;;;4.07;;
11893;SDS011;6006;49.696;8.662;2023-01-29T08:22:43;4.73;;;4.20;;
11893;SDS011;6006;49.696;8.662;2023-01-29T08:25:10;5.43;;;4.07;;
11893;SDS011;6006;49.696;8.662;2023-01-29T08:27:37;6.87;;;5.37;;
11893;SDS011;6006;49.696;8.662;2023-01-29T08:30:06;5.47;;;4.10;;
11893;SDS011;6006;49.696;8.662;2023-01-29T08:32:34;4.97;;;4.00;;
11893;SDS011;6006;49.696;8.662;2023-01-29T08:35:01;5.67;;;4.47;;
11893;SDS011;6006;49.696;8.662;2023-01-29T08:37:28;7.03;;;4.97;;
11893;SDS011;6006;49.696;8.662;2023-01-29T08:39:55;7.83;;;5.13;;
11893;SDS011;6006;49.696;8.662;2023-01-29T08:42:22;5.90;;;4.77;;
11893;SDS011;6006;49.696;8.662;2023-01-29T08:44:48;5.77;;;4.93;;
11893;SDS011;6006;49.696;8.662;2023-01-29T08:47:17;6.27;;;4.57;;
11893;SDS011;6006;49.696;8.662;2023-01-29T08:49:43;4.77;;;4.03;;
11893;SDS011;6006;49.696;8.662;2023-01-29T08:52:11;9.97;;;4.77;;
11893;SDS011;6006;49.696;8.662;2023-01-29T08:54:38;4.30;;;3.70;;
11893;SDS011;6006;49.696;8.662;2023-01-29T08:57:05;4.80;;;4.30;;
11893;SDS011;6006;49.696;8.662;2023-01-29T08:59:32;5.83;;;4.60;;
11893;SDS011;6006;49.696;8.662;2023-01-29T09:01:59;5.73;;;4.67;;
11893;SDS011;6006;49.696;8.662;2023-01-29T09:04:27;5.40;;;4.30;;
11893;SDS011;6006;49.696;8.662;2023-01-29T09:06:54;4.43;;;3.80;;
11893;SDS011;6006;49.696;8.662;2023-01-29T09:09:21;6.37;;;4.47;;
11893;SDS011;6006;49.696;8.662;2023-01-29T09:11:48;6.10;;;4.50;;
11893;SDS011;6006;49.696;8.662;2023-01-29T09:14:15;6.57;;;4.40;;
11893;SDS011;6006;49.696;8.662;2023-01-29T09:16:42;6.73;;;5.20;;
11893;SDS011;6006;49.696;8.662;2023-01-29T09:19:09;7.17;;;5.43;;
11893;SDS011;6006;49.696;8.662;2023-01-29T09:21:37;5.50;;;4.60;;
11893;SDS011;6006;49.696;8.662;2023-01-29T09:24:04;5.40;;;4.30;;
11893;SDS011;6006;49.696;8.662;2023-01-29T09:26:31;6.37;;;4.33;;
11893;SDS011;6006;49.696;8.662;2023-01-29T09:28:58;6.73;;;3.87;;
11893;SDS011;6006;49.696;8.662;2023-01-29T09:31:25;6.70;;;5.40;;
11893;SDS011;6006;49.696;8.662;2023-01-29T09:33:52;6.33;;;5.40;;
11893;SDS011;6006;49.696;8.662;2023-01-29T09:36:19;10.20;;;7.87;;
11893;SDS011;6006;49.696;8.662;2023-01-29T09:38:47;6.20;;;3.97;;
11893;SDS011;6006;49.696;8.662;2023-01-29T09:41:17;6.30;;;4.27;;
11893;SDS011;6006;49.696;8.662;2023-01-29T09:43:54;5.57;;;3.97;;
11893;SDS011;6006;49.696;8.662;2023-01-29T09:46:25;5.07;;;4.30;;
11893;SDS011;6006;49.696;8.662;2023-01-29T09:48:59;7.17;;;5.27;;
11893;SDS011;6006;49.696;8.662;2023-01-29T09:51:29;6.27;;;4.43;;
11893;SDS011;6006;49.696;8.662;2023-01-29T09:54:05;5.03;;;4.53;;
11893;SDS011;6006;49.696;8.662;2023-01-29T09:56:39;5.57;;;4.67;;
11893;SDS011;6006;49.696;8.662;2023-01-29T09:59:10;5.10;;;4.00;;
11893;SDS011;6006;49.696;8.662;2023-01-29T10:01:40;6.30;;;4.73;;
11893;SDS011;6006;49.696;8.662;2023-01-29T10:07:21;5.00;;;4.17;;
11893;SDS011;6006;49.696;8.662;2023-01-29T10:10:10;6.13;;;4.40;;
11893;SDS011;6006;49.696;8.662;2023-01-29T10:12:51;5.63;;;4.43;;
11893;SDS011;6006;49.696;8.662;2023-01-29T10:15:33;5.87;;;4.50;;
11893;SDS011;6006;49.696;8.662;2023-01-29T10:18:18;5.40;;;4.30;;
11893;SDS011;6006;49.696;8.662;2023-01-29T10:21:04;6.27;;;4.60;;
11893;SDS011;6006;49.696;8.662;2023-01-29T10:23:40;4.83;;;4.13;;
11893;SDS011;6006;49.696;8.662;2023-01-29T10:26:13;5.00;;;4.30;;
11893;SDS011;6006;49.696;8.662;2023-01-29T10:28:40;5.57;;;4.30;;
11893;SDS011;6006;49.696;8.662;2023-01-29T10:31:11;5.30;;;4.67;;
11893;SDS011;6006;49.696;8.662;2023-01-29T10:33:44;4.43;;;3.93;;
11893;SDS011;6006;49.696;8.662;2023-01-29T10:36:15;7.63;;;4.77;;
11893;SDS011;6006;49.696;8.662;2023-01-29T10:38:46;4.83;;;4.13;;
11893;SDS011;6006;49.696;8.662;2023-01-29T10:41:18;6.10;;;4.30;;
11893;SDS011;6006;49.696;8.662;2023-01-29T10:43:57;5.07;;;4.37;;
11893;SDS011;6006;49.696;8.662;2023-01-29T10:46:37;4.97;;;4.27;;
11893;SDS011;6006;49.696;8.662;2023-01-29T10:49:18;5.27;;;4.47;;
11893;SDS011;6006;49.696;8.662;2023-01-29T10:51:59;6.13;;;4.80;;
11893;SDS011;6006;49.696;8.662;2023-01-29T10:54:48;4.47;;;4.07;;
11893;SDS011;6006;49.696;8.662;2023-01-29T10:57:29;4.60;;;3.97;;
11893;SDS011;6006;49.696;8.662;2023-01-29T11:00:07;5.13;;;3.90;;
11893;SDS011;6006;49.696;8.662;2023-01-29T11:02:41;4.80;;;4.40;;
11893;SDS011;6006;49.696;8.662;2023-01-29T11:05:13;5.83;;;4.13;;
11893;SDS011;6006;49.696;8.662;2023-01-29T11:07:48;4.47;;;4.07;;
11893;SDS011;6006;49.696;8.662;2023-01-29T11:10:21;4.93;;;4.27;;
11893;SDS011;6006;49.696;8.662;2023-01-29T11:12:51;6.20;;;5.03;;
11893;SDS011;6006;49.696;8.662;2023-01-29T11:15:21;5.07;;;4.30;;
11893;SDS011;6006;49.696;8.662;2023-01-29T11:18:00;5.43;;;4.70;;
11893;SDS011;6006;49.696;8.662;2023-01-29T11:20:28;6.10;;;4.70;;
11893;SDS011;6006;49.696;8.662;2023-01-29T11:22:56;4.73;;;4.00;;
11893;SDS011;6006;49.696;8.662;2023-01-29T11:25:23;6.13;;;4.63;;
11893;SDS011;6006;49.696;8.662;2023-01-29T11:27:53;4.80;;;4.30;;
11893;SDS011;6006;49.696;8.662;2023-01-29T11:30:22;6.07;;;4.67;;
11893;SDS011;6006;49.696;8.662;2023-01-29T11:32:51;6.63;;;4.80;;
11893;SDS011;6006;49.696;8.662;2023-01-29T11:35:32;4.50;;;4.10;;
11893;SDS011;6006;49.696;8.662;2023-01-29T11:38:05;9.07;;;5.27;;
11893;SDS011;6006;49.696;8.662;2023-01-29T11:40:35;5.17;;;4.27;;
11893;SDS011;6006;49.696;8.662;2023-01-29T11:43:20;4.83;;;4.20;;
11893;SDS011;6006;49.696;8.662;2023-01-29T11:45:49;6.40;;;5.20;;
11893;SDS011;6006;49.696;8.662;2023-01-29T11:48:18;8.77;;;5.03;;
11893;SDS011;6006;49.696;8.662;2023-01-29T11:50:50;5.83;;;5.10;;
11893;SDS011;6006;49.696;8.662;2023-01-29T11:53:22;7.10;;;5.37;;
11893;SDS011;6006;49.696;8.662;2023-01-29T11:55:58;6.57;;;5.60;;
11893;SDS011;6006;49.696;8.662;2023-01-29T11:58:27;7.43;;;6.07;;
11893;SDS011;6006;49.696;8.662;2023-01-29T12:00:56;7.27;;;5.87;;
11893;SDS011;6006;49.696;8.662;2023-01-29T12:03:27;6.13;;;4.90;;
11893;SDS011;6006;49.696;8.662;2023-01-29T12:06:01;5.93;;;4.60;;
11893;SDS011;6006;49.696;8.662;2023-01-29T12:08:32;6.20;;;4.90;;
11893;SDS011;6006;49.696;8.662;2023-01-29T12:11:08;6.20;;;5.30;;
11893;SDS011;6006;49.696;8.662;2023-01-29T12:13:37;7.10;;;4.87;;
11893;SDS011;6006;49.696;8.662;2023-01-29T12:16:18;7.10;;;4.97;;
11893;SDS011;6006;49.696;8.662;2023-01-29T12:18:51;5.27;;;4.77;;
11893;SDS011;6006;49.696;8.662;2023-01-29T12:21:28;6.47;;;4.90;;
11893;SDS011;6006;49.696;8.662;2023-01-29T12:24:00;6.53;;;5.37;;
11893;SDS011;6006;49.696;8.662;2023-01-29T12:26:33;6.67;;;5.03;;
11893;SDS011;6006;49.696;8.662;2023-01-29T12:31:53;6.20;;;5.40;;
11893;SDS011;6006;49.696;8.662;2023-01-29T12:34:26;5.37;;;4.87;;
11893;SDS011;6006;49.696;8.662;2023-01-29T12:37:05;6.63;;;5.10;;
11893;SDS011;6006;49.696;8.662;2023-01-29T12:39:37;5.87;;;5.10;;
11893;SDS011;6006;49.696;8.662;2023-01-29T12:42:05;6.77;;;5.17;;
11893;SDS011;6006;49.696;8.662;2023-01-29T12:44:39;6.40;;;4.90;;
11893;SDS011;6006;49.696;8.662;2023-01-29T12:47:13;6.13;;;5.43;;
11893;SDS011;6006;49.696;8.662;2023-01-29T12:49:44;8.20;;;6.10;;
11893;SDS011;6006;49.696;8.662;2023-01-29T12:52:17;5.80;;;5.20;;
11893;SDS011;6006;49.696;8.662;2023-01-29T12:54:50;7.47;;;5.37;;
11893;SDS011;6006;49.696;8.662;2023-01-29T12:57:22;6.10;;;5.20;;
11893;SDS011;6006;49.696;8.662;2023-01-29T12:59:56;7.33;;;5.90;;
11893;SDS011;6006;49.696;8.662;2023-01-29T13:02:30;7.13;;;4.93;;
11893;SDS011;6006;49.696;8.662;2023-01-29T13:05:01;12.30;;;9.20;;
11893;SDS011;6006;49.696;8.662;2023-01-29T13:07:35;9.67;;;7.30;;
11893;SDS011;6006;49.696;8.662;2023-01-29T13:10:06;7.57;;;5.63;;
11893;SDS011;6006;49.696;8.662;2023-01-29T13:12:38;7.33;;;4.87;;
11893;SDS011;6006;49.696;8.662;2023-01-29T13:15:14;7.37;;;5.27;;
11893;SDS011;6006;49.696;8.662;2023-01-29T13:17:48;5.77;;;5.13;;
11893;SDS011;6006;49.696;8.662;2023-01-29T13:20:20;6.97;;;5.73;;
11893;SDS011;6006;49.696;8.662;2023-01-29T13:22:51;6.10;;;5.50;;
11893;SDS011;6006;49.696;8.662;2023-01-29T13:25:20;7.33;;;6.13;;
11893;SDS011;6006;49.696;8.662;2023-01-29T13:27:47;7.70;;;6.00;;
11893;SDS011;6006;49.696;8.662;2023-01-29T13:30:26;6.60;;;5.67;;
11893;SDS011;6006;49.696;8.662;2023-01-29T13:32:54;8.33;;;5.57;;
11893;SDS011;6006;49.696;8.662;2023-01-29T13:35:32;6.50;;;5.73;;
11893;SDS011;6006;49.696;8.662;2023-01-29T13:38:02;7.40;;;6.23;;
11893;SDS011;6006;49.696;8.662;2023-01-29T13:40:31;7.27;;;6.13;;
11893;SDS011;6006;49.696;8.662;2023-01-29T13:42:59;7.70;;;6.13;;
11893;SDS011;6006;49.696;8.662;2023-01-29T13:45:31;7.57;;;6.10;;
11893;SDS011;6006;49.696;8.662;2023-01-29T13:48:07;7.73;;;6.33;;
11893;SDS011;6006;49.696;8.662;2023-01-29T13:50:36;9.57;;;6.87;;
11893;SDS011;6006;49.696;8.662;2023-01-29T13:53:05;8.47;;;6.70;;
11893;SDS011;6006;49.696;8.662;2023-01-29T13:55:34;10.23;;;7.00;;
11893;SDS011;6006;49.696;8.662;2023-01-29T13:58:03;8.17;;;6.40;;
11893;SDS011;6006;49.696;8.662;2023-01-29T14:03:41;7.07;;;5.67;;
11893;SDS011;6006;49.696;8.662;2023-01-29T14:06:08;9.17;;;6.57;;
11893;SDS011;6006;49.696;8.662;2023-01-29T14:08:36;10.13;;;7.20;;
11893;SDS011;6006;49.696;8.662;2023-01-29T14:13:58;8.93;;;6.97;;
11893;SDS011;6006;49.696;8.662;2023-01-29T14:16:31;10.60;;;6.80;;
11893;SDS011;6006;49.696;8.662;2023-01-29T14:19:00;8.53;;;6.70;;
11893;SDS011;6006;49.696;8.662;2023-01-29T14:21:30;8.97;;;6.53;;
11893;SDS011;6006;49.696;8.662;2023-01-29T14:24:06;10.20;;;7.07;;
11893;SDS011;6006;49.696;8.662;2023-01-29T14:26:40;7.93;;;6.03;;
11893;SDS011;6006;49.696;8.662;2023-01-29T14:29:16;10.20;;;7.30;;
11893;SDS011;6006;49.696;8.662;2023-01-29T14:31:47;8.97;;;6.83;;
11893;SDS011;6006;49.696;8.662;2023-01-29T14:34:19;8.63;;;6.50;;
11893;SDS011;6006;49.696;8.662;2023-01-29T14:36:51;8.07;;;6.70;;
11893;SDS011;6006;49.696;8.662;2023-01-29T14:39:22;9.07;;;7.13;;
11893;SDS011;6006;49.696;8.662;2023-01-29T14:42:01;11.13;;;6.93;;
11893;SDS011;6006;49.696;8.662;2023-01-29T14:44:52;10.20;;;7.00;;
11893;SDS011;6006;49.696;8.662;2023-01-29T14:50:39;9.87;;;7.00;;
11893;SDS011;6006;49.696;8.662;2023-01-29T14:53:09;10.93;;;7.33;;
11893;SDS011;6006;49.696;8.662;2023-01-29T14:55:42;9.83;;;7.73;;
11893;SDS011;6006;49.696;8.662;2023-01-29T14:58:11;9.30;;;7.00;;
11893;SDS011;6006;49.696;8.662;2023-01-29T15:00:42;12.67;;;7.87;;
11893;SDS011;6006;49.696;8.662;2023-01-29T15:03:14;11.53;;;7.87;;
11893;SDS011;6006;49.696;8.662;2023-01-29T15:05:45;9.13;;;7.60;;
11893;SDS011;6006;49.696;8.662;2023-01-29T15:08:15;12.77;;;8.43;;
11893;SDS011;6006;49.696;8.662;2023-01-29T15:10:54;9.40;;;7.13;;
11893;SDS011;6006;49.696;8.662;2023-01-29T15:13:43;12.37;;;7.77;;
11893;SDS011;6006;49.696;8.662;2023-01-29T15:16:16;12.00;;;7.87;;
11893;SDS011;6006;49.696;8.662;2023-01-29T15:18:49;9.33;;;7.30;;
11893;SDS011;6006;49.696;8.662;2023-01-29T15:21:20;9.80;;;6.77;;
11893;SDS011;6006;49.696;8.662;2023-01-29T15:23:47;10.13;;;7.00;;
11893;SDS011;6006;49.696;8.662;2023-01-29T15:26:28;9.47;;;6.70;;
11893;SDS011;6006;49.696;8.662;2023-01-29T15:28:56;10.43;;;7.73;;
11893;SDS011;6006;49.696;8.662;2023-01-29T15:31:24;10.67;;;7.50;;
11893;SDS011;6006;49.696;8.662;2023-01-29T15:33:54;12.23;;;6.97;;
11893;SDS011;6006;49.696;8.662;2023-01-29T15:36:22;8.47;;;7.03;;
11893;SDS011;6006;49.696;8.662;2023-01-29T15:39:05;9.63;;;6.43;;
11893;SDS011;6006;49.696;8.662;2023-01-29T15:41:39;10.70;;;6.93;;
11893;SDS011;6006;49.696;8.662;2023-01-29T15:44:07;9.57;;;6.70;;